FlightSource - Aviation Photo Database

World Wide Airport Lookup


Search by ICAO
Or
Search by City

FlightSource.ca - Aviation Photo Database - Buffalo Niagara International Airport Information
Airport Identification
Name: Buffalo Niagara International Airport
ICAO: KBUF
IATA: BUF
Airport Location
City: Buffalo
Region: NY
Country: United States
Continent: North America
Latitude: 42.9405
Longitude: -78.7322
Airport Information
Type: Large Airport
Elevation: 724 Feet ASL
Flight Status: KBUF
More Info: KBUF
Airport Weather    
Metar: KBUF 220154Z 20007KT 10SM BKN037 BKN048 OVC065 07/05 A2996 RMK AO2 SLP149 T00720050 $
TAF:


Advertisement